Time;durP1;ratioP1;P1;durP2;ratioP2;P2;SDS_P1;SDS_P2;PMS_P1;PMS_P2;Temp;Humidity;BMP_temperature;BMP_pressure;BME280_temperature;BME280_humidity;BME280_pressure;Samples;Min_cycle;Max_cycle;Signal;HPM_P1;HPM_P2
2022/07/31 00:00:39;;;;;;;;;0.67;0.67;;;;;26.44;58.08;101672.97;5076284;28;63476;-72
2022/07/31 00:03:05;;;;;;;;;2.33;1.00;;;;;26.41;58.51;101667.63;5058986;28;45259;-72
2022/07/31 00:05:30;;;;;;;;;1.00;1.00;;;;;26.34;58.34;101675.13;5077152;28;45399;-72
2022/07/31 00:07:56;;;;;;;;;0.00;0.00;;;;;26.32;58.62;101671.63;5077400;28;45638;-71
2022/07/31 00:10:22;;;;;;;;;0.67;0.67;;;;;26.26;59.23;101663.72;5076826;28;45908;-71
2022/07/31 00:12:47;;;;;;;;;0.00;0.00;;;;;26.22;59.33;101665.69;5058652;28;45517;-72
2022/07/31 00:15:12;;;;;;;;;1.00;1.00;;;;;26.24;59.54;101680.03;5057875;28;62716;-73
2022/07/31 00:17:38;;;;;;;;;1.00;1.00;;;;;26.23;59.88;101666.56;5078358;28;45315;-72
2022/07/31 00:20:04;;;;;;;;;1.00;1.00;;;;;26.18;59.27;101663.16;5076742;28;45428;-73
2022/07/31 00:22:30;;;;;;;;;1.00;1.00;;;;;26.19;59.85;101667.63;5076829;28;45294;-72
2022/07/31 00:24:55;;;;;;;;;1.00;1.00;;;;;26.16;59.86;101670.47;5080307;28;50665;-72
2022/07/31 00:27:22;;;;;;;;;3.00;1.00;;;;;26.12;60.48;101664.28;5062725;28;45440;-72
2022/07/31 00:29:48;;;;;;;;;2.67;1.00;;;;;26.10;60.77;101668.91;5080272;27;46047;-72
2022/07/31 00:32:13;;;;;;;;;1.00;1.00;;;;;26.05;60.91;101665.50;5080285;28;45376;-71
2022/07/31 00:34:38;;;;;;;;;0.33;0.33;;;;;26.00;61.17;101667.50;5080413;28;45578;-71
2022/07/31 00:37:04;;;;;;;;;2.00;0.33;;;;;25.97;60.94;101665.78;5079723;28;62606;-72
2022/07/31 00:39:32;;;;;;;;;0.00;0.00;;;;;25.95;61.46;101662.28;5078991;28;64819;-71
2022/07/31 00:41:57;;;;;;;;;0.67;0.67;;;;;25.93;61.21;101674.97;5080113;28;45555;-72
2022/07/31 00:44:23;;;;;;;;;0.00;0.00;;;;;25.92;61.53;101673.22;5080153;28;45304;-72
2022/07/31 00:46:48;;;;;;;;;2.00;1.00;;;;;25.90;62.15;101669.69;5061282;28;56872;-71
2022/07/31 00:49:14;;;;;;;;;0.00;0.00;;;;;25.86;62.50;101668.03;5078275;28;69692;-70
2022/07/31 00:51:39;;;;;;;;;2.00;0.00;;;;;25.80;62.20;101665.59;5079576;28;45404;-71
2022/07/31 00:54:07;;;;;;;;;1.00;1.00;;;;;25.79;62.29;101669.25;5079815;28;45386;-72
2022/07/31 00:56:32;;;;;;;;;1.00;1.00;;;;;25.79;63.14;101670.13;5080356;28;45182;-72
2022/07/31 00:58:58;;;;;;;;;1.00;1.00;;;;;25.76;63.55;101669.34;5079807;28;45507;-71
2022/07/31 01:01:23;;;;;;;;;0.00;0.00;;;;;25.70;62.96;101658.72;5079873;28;45243;-71
2022/07/31 01:03:49;;;;;;;;;0.00;0.00;;;;;25.66;63.35;101668.78;5080043;28;45211;-72
2022/07/31 01:06:14;;;;;;;;;0.00;0.00;;;;;25.66;64.15;101667.91;5061916;28;45538;-71
2022/07/31 01:08:40;;;;;;;;;1.33;0.33;;;;;25.63;64.15;101674.31;5078992;28;66959;-73
2022/07/31 01:11:32;;;;;;;;;1.00;1.00;;;;;25.60;64.22;101680.72;5079486;28;45241;-71
2022/07/31 01:14:00;;;;;;;;;0.00;0.00;;;;;25.55;64.62;101674.59;5044752;28;45510;-72
2022/07/31 01:16:28;;;;;;;;;1.00;1.00;;;;;25.54;64.73;101677.38;5079683;28;45264;-71
2022/07/31 01:18:55;;;;;;;;;1.00;1.00;;;;;25.51;65.03;101678.34;5061086;28;45733;-72
2022/07/31 01:21:33;;;;;;;;;1.00;1.00;;;;;25.50;65.54;101678.41;5061614;28;45499;-72
2022/07/31 01:24:14;;;;;;;;;1.00;1.00;;;;;25.47;65.81;101676.72;5061705;28;45493;-72
2022/07/31 01:26:47;;;;;;;;;2.00;2.00;;;;;25.43;66.24;101675.06;5061679;28;45414;-72
2022/07/31 01:29:15;;;;;;;;;3.00;3.00;;;;;25.41;66.23;101676.97;5079617;28;46550;-71
2022/07/31 01:31:56;;;;;;;;;2.00;2.00;;;;;25.38;67.05;101668.94;5078987;27;45311;-71
2022/07/31 01:34:21;;;;;;;;;2.33;2.33;;;;;25.36;66.94;101670.84;5060881;28;45434;-72
2022/07/31 01:36:55;;;;;;;;;4.00;2.33;;;;;25.31;67.16;101662.91;5079238;28;45545;-71
2022/07/31 01:39:20;;;;;;;;;1.67;1.67;;;;;25.28;67.27;101670.22;5060673;28;46589;-70
2022/07/31 01:41:46;;;;;;;;;3.33;3.33;;;;;25.26;67.35;101666.72;5060375;28;59915;-72
2022/07/31 01:44:12;;;;;;;;;4.33;4.33;;;;;25.23;67.59;101669.50;5061123;28;45357;-72
2022/07/31 01:46:38;;;;;;;;;0.00;0.00;;;;;25.23;68.00;101677.63;5060384;28;55653;-72
2022/07/31 01:49:03;;;;;;;;;5.67;4.00;;;;;25.20;68.84;101680.47;5059871;28;68641;-72
2022/07/31 01:51:29;;;;;;;;;5.00;5.00;;;;;25.18;68.99;101676.91;5060364;28;55671;-71
2022/07/31 01:53:55;;;;;;;;;6.33;6.00;;;;;25.15;68.67;101680.63;5060787;28;45538;-71
2022/07/31 01:56:22;;;;;;;;;7.00;6.00;;;;;25.07;69.31;101667.38;5060538;28;57872;-72
2022/07/31 01:58:48;;;;;;;;;6.67;5.00;;;;;25.10;69.41;101673.63;5060872;28;46704;-72
2022/07/31 02:01:15;;;;;;;;;6.00;4.00;;;;;25.03;70.04;101668.38;5060988;28;45362;-72
2022/07/31 02:03:41;;;;;;;;;4.67;4.00;;;;;25.02;70.04;101672.03;5061145;28;45488;-71
2022/07/31 02:06:07;;;;;;;;;5.67;5.00;;;;;25.00;70.16;101678.44;5079193;28;56020;-71
2022/07/31 02:08:33;;;;;;;;;5.33;5.33;;;;;24.97;70.47;101690.22;5060259;28;64053;-72
2022/07/31 02:11:00;;;;;;;;;4.00;4.00;;;;;24.92;70.51;101686.78;5078204;28;63437;-71
2022/07/31 02:13:25;;;;;;;;;4.67;4.67;;;;;24.92;71.61;101689.50;5078926;28;45405;-71
2022/07/31 02:15:51;;;;;;;;;4.67;4.00;;;;;24.91;71.07;101687.72;5059846;28;59362;-72
2022/07/31 02:18:17;;;;;;;;;3.00;3.00;;;;;24.88;72.00;101684.28;5060502;28;46491;-71
2022/07/31 02:20:44;;;;;;;;;3.33;3.33;;;;;24.86;71.75;101673.50;5060599;28;45238;-71
2022/07/31 02:23:10;;;;;;;;;5.67;4.67;;;;;24.86;72.37;101684.31;5060642;28;45529;-70
2022/07/31 02:25:36;;;;;;;;;4.00;4.00;;;;;24.85;72.20;101681.66;5078963;28;45442;-72
2022/07/31 02:28:09;;;;;;;;;5.00;5.00;;;;;24.80;72.80;101682.69;5060228;28;46722;-72
2022/07/31 02:30:35;;;;;;;;;6.33;3.00;;;;;24.75;72.92;101686.50;5078346;27;45369;-71
2022/07/31 02:33:02;;;;;;;;;3.00;2.00;;;;;24.74;73.51;101687.44;5060256;28;45454;-72
2022/07/31 02:35:29;;;;;;;;;2.00;2.00;;;;;24.69;73.61;101687.59;5060594;28;45346;-72
2022/07/31 02:37:55;;;;;;;;;1.67;1.67;;;;;24.69;74.04;101681.31;5077545;28;53623;-72
2022/07/31 02:40:23;;;;;;;;;2.33;2.33;;;;;24.69;74.05;101670.50;5060386;28;45469;-71
2022/07/31 02:42:48;;;;;;;;;3.00;2.00;;;;;24.66;74.27;101667.91;5060418;28;45245;-72
2022/07/31 02:45:14;;;;;;;;;4.00;3.00;;;;;24.63;74.99;101666.22;5059224;28;55555;-71
2022/07/31 02:47:40;;;;;;;;;2.00;2.00;;;;;24.58;75.04;101662.78;5059445;28;57723;-71
2022/07/31 02:50:06;;;;;;;;;2.33;2.00;;;;;24.56;75.50;101668.25;5077256;28;69807;-73
2022/07/31 02:52:32;;;;;;;;;1.00;1.00;;;;;24.56;75.93;101667.34;5060136;28;45466;-72
2022/07/31 02:54:58;;;;;;;;;1.33;1.00;;;;;24.53;76.20;101667.44;5060272;28;45558;-71
2022/07/31 02:57:25;;;;;;;;;1.00;1.00;;;;;24.50;76.06;101668.44;5060140;28;47702;-72
2022/07/31 02:59:50;;;;;;;;;1.00;1.00;;;;;24.50;76.54;101662.13;5060222;28;45364;-71
2022/07/31 03:02:16;;;;;;;;;3.00;1.00;;;;;24.48;76.97;101656.81;5077828;28;45330;-71
2022/07/31 03:04:41;;;;;;;;;2.00;2.00;;;;;24.50;76.64;101663.06;5078022;28;58398;-71
2022/07/31 03:07:06;;;;;;;;;2.00;2.00;;;;;24.50;77.03;101660.34;5077357;28;57072;-72
2022/07/31 03:09:32;;;;;;;;;1.00;1.00;;;;;24.53;76.89;101662.03;5077970;28;45188;-71
2022/07/31 03:11:57;;;;;;;;;4.33;1.67;;;;;24.56;77.71;101668.25;5077514;28;45302;-73
2022/07/31 03:14:24;;;;;;;;;3.00;1.00;;;;;24.54;77.37;101653.00;5060171;28;45350;-71
2022/07/31 03:16:51;;;;;;;;;2.00;2.00;;;;;24.54;77.64;101653.88;5059184;28;46915;-71
2022/07/31 03:19:17;;;;;;;;;3.00;3.00;;;;;24.54;77.99;101647.59;5059676;28;45428;-71
2022/07/31 03:21:43;;;;;;;;;3.00;3.00;;;;;24.53;78.32;101640.44;5059611;28;45403;-72
2022/07/31 03:24:10;;;;;;;;;2.00;2.00;;;;;24.56;78.72;101652.03;5059435;28;46958;-71
2022/07/31 03:26:36;;;;;;;;;2.67;2.67;;;;;24.54;78.38;101651.19;5059698;28;46070;-72
2022/07/31 03:29:03;;;;;;;;;4.00;3.00;;;;;24.53;78.46;101635.94;5059552;28;45339;-70
2022/07/31 03:31:29;;;;;;;;;3.67;3.67;;;;;24.53;78.85;101633.22;5077524;27;45181;-72
2022/07/31 03:33:54;;;;;;;;;3.00;3.00;;;;;24.54;79.07;101634.97;5059693;28;45474;-70
2022/07/31 03:36:20;;;;;;;;;5.67;5.00;;;;;24.50;79.14;101624.34;5077194;28;46564;-72
2022/07/31 03:38:45;;;;;;;;;4.33;4.33;;;;;24.50;78.83;101630.66;5058935;28;45429;-72
2022/07/31 03:41:10;;;;;;;;;5.33;5.33;;;;;24.47;79.23;101630.75;5077332;28;45552;-71
2022/07/31 03:43:36;;;;;;;;;5.33;5.33;;;;;24.47;79.50;101629.84;5077013;28;54757;-72
2022/07/31 03:46:03;;;;;;;;;9.00;7.33;;;;;24.46;79.82;101625.41;5058975;28;46235;-71
2022/07/31 03:48:29;;;;;;;;;8.67;7.67;;;;;24.48;80.09;101634.31;5059072;28;45370;-72
2022/07/31 03:50:54;;;;;;;;;9.00;9.00;;;;;24.49;80.08;101647.75;5077299;28;45323;-70
2022/07/31 03:53:20;;;;;;;;;7.67;7.33;;;;;24.47;80.80;101637.97;5077123;28;45549;-72
2022/07/31 03:55:47;;;;;;;;;8.67;8.67;;;;;24.42;80.76;101632.72;5058991;28;46373;-72
2022/07/31 03:58:12;;;;;;;;;7.33;7.33;;;;;24.41;80.46;101621.97;5059045;28;45302;-72
2022/07/31 04:00:39;;;;;;;;;8.67;8.67;;;;;24.42;81.10;101623.72;5059197;28;45315;-72
2022/07/31 04:03:07;;;;;;;;;8.00;8.00;;;;;24.44;81.45;101627.25;5076670;28;58121;-72
2022/07/31 04:05:33;;;;;;;;;9.00;9.00;;;;;24.42;81.60;101616.50;5076877;28;47751;-71
2022/07/31 04:07:58;;;;;;;;;10.33;10.33;;;;;24.41;81.76;101613.88;5075723;28;45402;-71
2022/07/31 04:10:24;;;;;;;;;8.00;8.00;;;;;24.42;81.93;101621.03;5077227;28;45596;-71
2022/07/31 04:12:49;;;;;;;;;7.67;7.67;;;;;24.40;81.70;101621.09;5077139;28;45364;-71
2022/07/31 04:15:15;;;;;;;;;8.00;6.33;;;;;24.41;81.78;101630.06;5076451;28;45725;-71
2022/07/31 04:17:40;;;;;;;;;8.67;6.67;;;;;24.38;82.59;101630.16;5076805;28;48893;-72
2022/07/31 04:20:08;;;;;;;;;6.67;6.67;;;;;24.35;83.82;101631.16;5076211;28;63650;-72
2022/07/31 04:22:33;;;;;;;;;6.33;6.33;;;;;24.32;82.91;101631.22;5077247;28;45308;-72
2022/07/31 04:24:58;;;;;;;;;4.00;4.00;;;;;24.29;83.26;101631.34;5076609;28;45615;-71
2022/07/31 04:27:24;;;;;;;;;6.67;6.67;;;;;24.25;83.89;101635.06;5075855;28;69821;-72
2022/07/31 04:29:49;;;;;;;;;4.67;4.67;;;;;24.20;84.86;101637.91;5076866;27;45390;-71
2022/07/31 04:32:14;;;;;;;;;5.33;4.33;;;;;24.15;85.26;101637.19;5076440;28;57103;-72
2022/07/31 04:34:41;;;;;;;;;4.33;4.33;;;;;24.15;86.32;101639.88;5076709;28;46464;-71
2022/07/31 04:37:06;;;;;;;;;4.00;4.00;;;;;24.12;85.30;101634.56;5076730;28;45346;-72
2022/07/31 04:39:32;;;;;;;;;4.33;4.33;;;;;24.15;85.21;101636.31;5076354;28;45589;-73
2022/07/31 04:41:57;;;;;;;;;4.00;3.00;;;;;24.14;85.47;101630.03;5076086;28;62233;-72
2022/07/31 04:44:22;;;;;;;;;4.67;4.67;;;;;24.13;86.32;101628.25;5075525;28;67013;-72
2022/07/31 04:46:48;;;;;;;;;4.00;3.67;;;;;24.13;85.86;101630.97;5076267;28;45317;-72
2022/07/31 04:49:14;;;;;;;;;3.33;3.33;;;;;24.14;85.59;101635.41;5075808;28;60556;-72
2022/07/31 04:51:40;;;;;;;;;5.00;4.00;;;;;24.16;85.73;101633.53;5076624;28;45268;-71
2022/07/31 04:54:05;;;;;;;;;4.33;4.33;;;;;24.19;86.25;101632.56;5058124;28;45701;-71
2022/07/31 04:56:40;;;;;;;;;3.00;3.00;;;;;24.21;86.07;101639.69;5076511;28;45352;-72
2022/07/31 04:59:08;;;;;;;;;4.33;4.33;;;;;24.23;85.65;101642.31;5076426;28;45554;-71
2022/07/31 05:01:34;;;;;;;;;3.33;3.33;;;;;24.23;86.27;101632.41;5076581;28;45227;-71
2022/07/31 05:04:00;;;;;;;;;7.33;4.67;;;;;24.22;86.12;101638.72;5076225;28;45832;-72
2022/07/31 05:06:36;;;;;;;;;6.00;5.00;;;;;24.24;85.70;101641.41;5058334;28;45400;-72
2022/07/31 05:09:04;;;;;;;;;5.33;4.00;;;;;24.20;86.04;101632.53;5077163;28;45308;-71
2022/07/31 05:11:29;;;;;;;;;3.00;3.00;;;;;24.22;86.00;101640.56;5079597;28;45683;-71
2022/07/31 05:13:57;;;;;;;;;5.00;5.00;;;;;24.23;85.89;101645.88;5079362;28;45508;-72
2022/07/31 05:16:23;;;;;;;;;2.67;2.67;;;;;24.22;86.33;101640.56;5061258;28;45432;-72
2022/07/31 05:18:50;;;;;;;;;5.00;3.00;;;;;24.26;85.64;101647.63;5079879;28;45196;-71
2022/07/31 05:21:16;;;;;;;;;4.33;4.33;;;;;24.23;86.30;101645.00;5061875;28;45466;-72
2022/07/31 05:23:43;;;;;;;;;6.00;4.67;;;;;24.26;86.68;101647.63;5079307;28;45653;-72
2022/07/31 05:26:09;;;;;;;;;5.67;5.00;;;;;24.26;85.96;101639.53;5061308;28;45456;-72
2022/07/31 05:28:36;;;;;;;;;4.33;4.33;;;;;24.22;86.20;101637.84;5079729;28;45295;-72
2022/07/31 05:31:01;;;;;;;;;3.00;3.00;;;;;24.21;87.06;101633.41;5061522;28;45306;-72
2022/07/31 05:33:27;;;;;;;;;6.33;5.33;;;;;24.22;87.26;101641.44;5061056;28;46738;-71
2022/07/31 05:35:53;;;;;;;;;3.67;3.67;;;;;24.22;88.04;101635.16;5079360;28;45232;-71
2022/07/31 05:38:19;;;;;;;;;3.67;3.67;;;;;24.20;87.52;101639.72;5079176;28;45305;-71
2022/07/31 05:40:44;;;;;;;;;3.00;3.00;;;;;24.18;87.65;101638.88;5078768;28;61116;-71
2022/07/31 05:43:09;;;;;;;;;3.00;3.00;;;;;24.17;88.03;101635.31;5079035;28;45866;-71
2022/07/31 05:45:35;;;;;;;;;3.33;3.33;;;;;24.14;88.61;101638.13;5079013;28;45275;-72
2022/07/31 05:48:00;;;;;;;;;4.00;4.00;;;;;24.13;88.68;101643.53;5079235;28;45330;-72
2022/07/31 05:50:26;;;;;;;;;2.67;2.67;;;;;24.14;89.89;101654.31;5060973;28;45268;-72
2022/07/31 05:52:51;;;;;;;;;4.00;2.33;;;;;24.13;89.34;101646.25;5060161;28;64533;-71
2022/07/31 05:55:16;;;;;;;;;4.00;4.00;;;;;24.13;89.23;101651.63;5051899;28;62112;-70
2022/07/31 05:57:42;;;;;;;;;3.33;3.33;;;;;24.14;89.51;101659.72;5079174;28;48241;-71
2022/07/31 06:00:08;;;;;;;;;5.00;5.00;;;;;24.13;88.83;101660.66;5078967;28;51186;-72
2022/07/31 06:02:34;;;;;;;;;5.00;4.00;;;;;24.15;88.90;101661.47;5078675;28;46116;-70
2022/07/31 06:04:59;;;;;;;;;3.00;3.00;;;;;24.11;88.70;101640.91;5078826;28;45648;-72
2022/07/31 06:07:25;;;;;;;;;3.00;3.00;;;;;24.11;89.05;101637.31;5060658;28;45237;-71
2022/07/31 06:09:50;;;;;;;;;3.00;3.00;;;;;24.07;89.22;101625.75;5078651;28;53460;-71
2022/07/31 06:12:15;;;;;;;;;4.00;4.00;;;;;24.15;88.50;101639.00;5078297;28;46436;-72
2022/07/31 06:14:41;;;;;;;;;4.00;4.00;;;;;24.15;89.02;101644.41;5078980;28;45325;-72
2022/07/31 06:17:06;;;;;;;;;5.00;5.00;;;;;24.09;88.63;101640.09;5077873;28;58922;-72
2022/07/31 06:19:33;;;;;;;;;3.33;3.33;;;;;24.10;89.17;101657.16;5078915;28;45613;-73
2022/07/31 06:21:58;;;;;;;;;5.67;4.00;;;;;24.05;89.47;101641.09;5059125;28;45468;-71
2022/07/31 06:24:24;;;;;;;;;3.33;3.33;;;;;24.04;88.85;101651.03;5060452;28;45203;-71
2022/07/31 06:26:50;;;;;;;;;2.67;2.67;;;;;24.01;89.07;101651.09;5078512;28;45308;-71
2022/07/31 06:29:16;;;;;;;;;4.00;4.00;;;;;23.97;89.20;101649.47;5060616;28;45451;-71
2022/07/31 06:31:41;;;;;;;;;6.00;5.00;;;;;23.99;89.23;101652.97;5059118;28;68310;-71
2022/07/31 06:34:06;;;;;;;;;5.00;4.00;;;;;23.95;89.39;101643.22;5077793;28;63496;-71
2022/07/31 06:36:31;;;;;;;;;4.00;4.00;;;;;23.93;90.24;101644.22;5077866;28;61064;-71
2022/07/31 06:38:57;;;;;;;;;6.00;5.67;;;;;23.94;88.99;101652.25;5077805;28;53381;-72
2022/07/31 06:44:06;;;;;;;;;4.00;4.00;;;;;24.02;88.84;101649.28;5078392;28;45496;-73
2022/07/31 06:46:32;;;;;;;;;5.00;4.33;;;;;24.03;88.88;101649.25;5077001;28;65573;-72
2022/07/31 06:48:57;;;;;;;;;6.00;4.67;;;;;24.06;89.03;101661.75;5059446;28;59833;-70
2022/07/31 06:51:22;;;;;;;;;4.33;4.33;;;;;24.12;87.90;101658.84;5077149;28;67850;-72
2022/07/31 06:53:47;;;;;;;;;5.67;4.00;;;;;24.18;87.47;101657.78;5077159;28;65943;-71
2022/07/31 06:56:13;;;;;;;;;6.33;5.00;;;;;24.19;86.39;101667.66;5077552;28;57608;-71
2022/07/31 06:58:38;;;;;;;;;6.00;4.00;;;;;24.21;86.96;101665.78;5077911;28;53719;-72
2022/07/31 07:01:03;;;;;;;;;5.00;5.00;;;;;24.20;86.05;101662.19;5076848;28;69439;-72
2022/07/31 07:03:29;;;;;;;;;5.00;5.00;;;;;24.24;86.30;101666.56;5077135;28;67128;-71
2022/07/31 07:05:54;;;;;;;;;6.00;6.00;;;;;24.25;86.03;101664.75;5077379;28;61834;-73
2022/07/31 07:08:19;;;;;;;;;4.00;4.00;;;;;24.24;85.12;101658.47;5077482;28;56390;-72
2022/07/31 07:10:45;;;;;;;;;4.33;4.33;;;;;24.22;85.57;101654.94;5076984;28;66578;-71
2022/07/31 07:13:10;;;;;;;;;4.00;4.00;;;;;24.23;85.40;101656.69;5077032;28;61146;-71
2022/07/31 07:15:35;;;;;;;;;4.67;4.67;;;;;24.24;84.86;101654.91;5076781;28;60347;-70
2022/07/31 07:18:01;;;;;;;;;8.00;5.00;;;;;24.20;85.23;101664.03;5077264;28;59654;-71
2022/07/31 07:20:26;;;;;;;;;4.00;4.00;;;;;24.22;84.51;101657.63;5076650;28;68647;-71
2022/07/31 07:22:51;;;;;;;;;5.00;5.00;;;;;24.27;85.04;101665.56;5077118;28;64152;-71
2022/07/31 07:25:19;;;;;;;;;5.00;5.00;;;;;24.31;84.74;101680.75;5077517;28;45383;-73
2022/07/31 07:27:45;;;;;;;;;5.67;5.67;;;;;24.38;84.05;101679.63;5078220;28;45219;-71
2022/07/31 07:30:10;;;;;;;;;6.00;4.00;;;;;24.45;84.42;101669.50;5077915;27;46906;-71
2022/07/31 07:32:35;;;;;;;;;4.00;4.00;;;;;24.55;84.15;101673.66;5077255;28;45281;-72
2022/07/31 07:35:02;;;;;;;;;4.33;4.00;;;;;24.63;83.50;101668.91;5077412;28;49278;-71
2022/07/31 07:37:28;;;;;;;;;4.67;4.67;;;;;24.66;82.61;101671.50;5077580;28;45257;-73
2022/07/31 07:39:54;;;;;;;;;5.00;4.00;;;;;24.73;82.80;101675.75;5058683;28;46496;-71
2022/07/31 07:42:19;;;;;;;;;5.00;5.00;;;;;24.77;82.33;101673.84;5059320;28;45358;-72
2022/07/31 07:44:45;;;;;;;;;5.67;4.33;;;;;24.82;82.85;101674.53;5076594;28;61992;-71
2022/07/31 07:47:10;;;;;;;;;8.00;5.00;;;;;24.87;82.06;101685.19;5076447;28;61164;-71
2022/07/31 07:49:35;;;;;;;;;5.00;5.00;;;;;24.93;82.35;101680.47;5076334;28;64305;-71
2022/07/31 07:52:01;;;;;;;;;4.00;4.00;;;;;24.99;81.28;101682.97;5077389;28;45330;-71
2022/07/31 07:54:27;;;;;;;;;7.67;6.67;;;;;25.02;81.93;101676.53;5077055;28;45184;-72
2022/07/31 07:56:53;;;;;;;;;5.67;5.67;;;;;25.08;81.22;101676.34;5077621;28;45611;-71
2022/07/31 07:59:19;;;;;;;;;7.00;5.67;;;;;25.14;81.43;101680.66;5059160;28;45460;-72
2022/07/31 08:01:44;;;;;;;;;4.67;4.67;;;;;25.16;80.95;101676.09;5077332;28;45181;-72
2022/07/31 08:04:10;;;;;;;;;5.00;5.00;;;;;25.23;80.63;101680.31;5076668;28;53419;-72
2022/07/31 08:06:35;;;;;;;;;10.67;5.00;;;;;25.28;80.37;101686.44;5077378;28;46082;-72
2022/07/31 08:09:01;;;;;;;;;5.67;5.67;;;;;25.31;79.45;101683.66;5059043;28;46570;-72
2022/07/31 08:11:26;;;;;;;;;6.00;5.00;;;;;25.23;79.61;101680.31;5076597;28;45343;-71
2022/07/31 08:13:51;;;;;;;;;7.00;5.00;;;;;25.18;79.66;101682.31;5076991;28;45343;-72
2022/07/31 08:16:19;;;;;;;;;7.00;5.67;;;;;25.16;80.24;101676.09;5076280;28;59778;-71
2022/07/31 08:18:44;;;;;;;;;6.67;6.67;;;;;25.23;79.63;101683.03;5041908;28;46905;-72
2022/07/31 08:21:09;;;;;;;;;7.00;7.00;;;;;25.24;80.22;101687.50;5077009;28;45370;-73
2022/07/31 08:23:35;;;;;;;;;5.00;5.00;;;;;25.29;79.69;101686.38;5076433;28;50368;-73
2022/07/31 08:26:03;;;;;;;;;6.67;6.33;;;;;25.34;79.44;101694.34;5076920;28;45394;-72
2022/07/31 08:28:28;;;;;;;;;10.67;7.00;;;;;25.38;79.92;101687.00;5076575;28;45401;-72
2022/07/31 08:30:53;;;;;;;;;8.00;5.00;;;;;25.43;79.33;101683.19;5048685;28;58344;-72
2022/07/31 08:33:19;;;;;;;;;8.33;7.00;;;;;25.41;78.80;101681.47;5072465;28;45273;-71
2022/07/31 08:35:44;;;;;;;;;8.00;6.00;;;;;25.42;78.47;101684.13;5076274;28;60295;-71
2022/07/31 08:38:10;;;;;;;;;6.33;6.33;;;;;25.41;78.89;101676.97;5075110;27;69961;-72
2022/07/31 08:40:36;;;;;;;;;6.00;6.00;;;;;25.47;79.44;101682.13;5076782;28;45297;-72
2022/07/31 08:43:03;;;;;;;;;5.33;5.33;;;;;25.54;78.80;101686.38;5076696;28;45462;-72
2022/07/31 08:45:29;;;;;;;;;7.00;7.00;;;;;25.58;78.39;101669.09;5079495;28;45529;-72
2022/07/31 08:47:56;;;;;;;;;5.33;5.00;;;;;25.66;78.51;101670.59;5057539;28;47444;-72
2022/07/31 08:50:22;;;;;;;;;5.33;5.33;;;;;25.75;78.31;101670.28;5201332;22;46020;-72
2022/07/31 08:52:48;;;;;;;;;7.00;6.00;;;;;25.80;77.60;101671.88;5061805;28;45584;-71
2022/07/31 08:55:14;;;;;;;;;7.33;6.33;;;;;25.77;77.26;101677.38;5061606;28;45298;-73
2022/07/31 08:57:40;;;;;;;;;6.00;6.00;;;;;25.71;77.01;101669.47;5061707;28;46445;-72
2022/07/31 09:00:07;;;;;;;;;9.00;9.00;;;;;25.66;76.88;101678.72;5061802;28;45452;-71
2022/07/31 09:02:32;;;;;;;;;7.00;7.00;;;;;25.67;76.95;101683.19;5080011;27;45319;-72
2022/07/31 09:04:58;;;;;;;;;9.00;8.00;;;;;25.64;76.67;101683.31;5062188;28;45413;-72
2022/07/31 09:07:23;;;;;;;;;8.00;7.00;;;;;25.56;76.79;101673.66;5079663;28;46593;-72
2022/07/31 09:09:49;;;;;;;;;9.00;6.00;;;;;25.44;77.18;101682.25;5078947;28;66685;-72
2022/07/31 09:12:25;;;;;;;;;7.00;7.00;;;;;25.28;76.81;101671.09;5079478;28;45371;-71
2022/07/31 09:14:50;;;;;;;;;7.33;5.67;;;;;25.18;77.33;101672.38;5079891;28;45435;-73
2022/07/31 09:17:16;;;;;;;;;7.00;5.00;;;;;25.04;77.14;101664.75;5078861;28;53247;-71
2022/07/31 09:19:44;;;;;;;;;9.00;9.00;;;;;24.99;77.17;101661.34;5061468;28;45391;-71
2022/07/31 09:22:23;;;;;;;;;6.00;6.00;;;;;24.93;77.51;101669.66;5061287;28;45472;-71
2022/07/31 09:24:49;;;;;;;;;9.00;7.33;;;;;24.97;77.56;101675.81;5079926;28;45478;-71
2022/07/31 09:27:16;;;;;;;;;6.33;6.33;;;;;24.99;77.39;101661.34;5061260;28;45720;-72
2022/07/31 09:29:43;;;;;;;;;7.00;7.00;;;;;25.08;77.49;101665.53;5079398;28;45474;-71
2022/07/31 09:32:17;;;;;;;;;6.67;6.67;;;;;25.13;77.62;101673.50;5079464;27;45399;-71
2022/07/31 09:34:43;;;;;;;;;11.33;10.00;;;;;25.18;77.16;101666.97;5079497;28;45380;-71
2022/07/31 09:37:12;;;;;;;;;7.33;7.33;;;;;25.24;77.84;101666.75;5079379;28;45389;-70
2022/07/31 09:39:38;;;;;;;;;7.33;7.33;;;;;25.30;77.18;101665.63;5078887;28;45629;-72
2022/07/31 09:42:05;;;;;;;;;9.00;8.00;;;;;25.40;77.17;101672.47;5079497;28;45410;-72
2022/07/31 09:44:39;;;;;;;;;10.33;8.00;;;;;25.47;77.15;101668.63;5079427;28;45302;-71
2022/07/31 09:47:05;;;;;;;;;8.00;8.00;;;;;25.52;77.30;101671.16;5078722;28;46742;-71
2022/07/31 09:49:32;;;;;;;;;7.00;7.00;;;;;25.56;77.12;101683.59;5078149;28;45556;-72
2022/07/31 09:51:59;;;;;;;;;8.00;8.00;;;;;25.59;76.83;101668.13;5079002;28;45250;-72
2022/07/31 09:54:28;;;;;;;;;9.00;8.00;;;;;25.60;76.12;101678.00;5078722;28;45644;-72
2022/07/31 09:56:55;;;;;;;;;8.00;8.00;;;;;25.62;76.09;101688.78;5061456;28;45697;-74
2022/07/31 09:59:20;;;;;;;;;5.00;5.00;;;;;25.53;76.16;101686.44;5044557;28;45327;-70
2022/07/31 10:01:47;;;;;;;;;7.00;6.67;;;;;25.45;75.64;101681.28;5078389;28;63955;-72
2022/07/31 10:04:16;;;;;;;;;9.67;8.00;;;;;25.45;75.78;101675.88;5079192;28;45379;-72
2022/07/31 10:06:42;;;;;;;;;6.33;6.33;;;;;25.48;76.68;101672.19;5078843;27;47637;-71
2022/07/31 10:09:08;;;;;;;;;8.00;8.00;;;;;25.53;76.18;101671.09;5078875;28;45380;-72
2022/07/31 10:11:34;;;;;;;;;6.67;6.67;;;;;25.53;76.03;101662.09;5059926;28;64722;-71
2022/07/31 10:14:01;;;;;;;;;6.33;6.33;;;;;25.53;76.19;101673.78;5060138;28;60133;-71
2022/07/31 10:16:28;;;;;;;;;8.00;8.00;;;;;25.62;75.65;101672.56;5060654;28;46776;-70
2022/07/31 10:18:59;;;;;;;;;9.00;7.33;;;;;25.70;76.29;101677.66;5058222;28;45216;-72
2022/07/31 10:21:36;;;;;;;;;8.67;5.67;;;;;25.73;75.76;101674.84;5042452;28;45314;-71
2022/07/31 10:24:03;;;;;;;;;7.67;7.67;;;;;25.73;76.08;101666.75;5063942;22;45622;-70
2022/07/31 10:26:29;;;;;;;;;10.00;9.00;;;;;25.76;75.72;101659.41;5039854;28;46454;-72
2022/07/31 10:28:56;;;;;;;;;12.00;11.33;;;;;25.73;75.54;101662.22;5040252;28;45374;-73
2022/07/31 10:31:21;;;;;;;;;7.00;7.00;;;;;25.75;75.62;101659.47;5040076;28;45519;-71
2022/07/31 10:33:48;;;;;;;;;7.00;7.00;;;;;25.72;75.34;101657.72;5040374;28;45625;-71
2022/07/31 10:36:19;;;;;;;;;9.00;9.00;;;;;25.73;75.53;101658.63;5039745;28;46400;-72
2022/07/31 10:39:02;;;;;;;;;12.33;12.33;;;;;25.76;75.65;101666.63;5039973;28;45365;-71
2022/07/31 10:42:15;;;;;;;;;7.00;7.00;;;;;25.79;74.96;101655.72;5040262;28;45209;-71
2022/07/31 10:44:54;;;;;;;;;19.67;16.67;;;;;25.85;75.79;101669.00;5021821;28;45499;-71
2022/07/31 10:47:20;;;;;;;;;12.33;11.00;;;;;25.89;75.33;101656.19;5039519;28;46158;-72
2022/07/31 10:49:47;;;;;;;;;6.33;6.33;;;;;25.89;74.97;101650.78;5057610;28;55124;-71
2022/07/31 10:52:14;;;;;;;;;7.00;7.00;;;;;25.88;74.51;101646.31;5057554;28;45564;-71
2022/07/31 10:54:45;;;;;;;;;13.00;12.00;;;;;25.91;75.17;101651.63;5057583;28;45299;-72
2022/07/31 10:57:38;;;;;;;;;8.00;6.67;;;;;25.92;74.50;101647.97;5057553;28;46550;-72
2022/07/31 11:00:19;;;;;;;;;7.00;6.67;;;;;25.95;75.15;101647.88;5039733;28;45288;-70
2022/07/31 11:02:46;;;;;;;;;5.00;5.00;;;;;25.98;74.95;101647.72;5057813;28;45278;-71
2022/07/31 11:05:13;;;;;;;;;8.33;8.33;;;;;25.99;75.22;101649.47;5057684;28;45436;-72
2022/07/31 11:07:43;;;;;;;;;5.67;5.67;;;;;26.00;74.57;101635.91;5056800;28;46184;-72
2022/07/31 11:10:19;;;;;;;;;6.67;6.33;;;;;26.10;75.27;101649.97;5057679;28;45601;-71
2022/07/31 11:12:57;;;;;;;;;7.33;7.33;;;;;26.16;74.68;101646.13;5057532;28;45300;-72
2022/07/31 11:15:23;;;;;;;;;6.67;6.67;;;;;26.22;74.55;101640.44;5057453;28;45422;-71
2022/07/31 11:17:49;;;;;;;;;7.00;7.00;;;;;26.25;74.14;101637.59;5039464;28;45593;-73
2022/07/31 11:20:18;;;;;;;;;7.67;6.33;;;;;26.33;73.62;101641.75;5044734;28;45202;-72
2022/07/31 11:22:52;;;;;;;;;5.00;5.00;;;;;26.41;73.81;101638.72;5056507;28;45633;-71
2022/07/31 11:25:18;;;;;;;;;7.00;7.00;;;;;26.46;73.75;101623.19;5057361;28;45399;-71